Strona główna
METAR-TAF:

METAR-TAF

Lotnisko :

Niamey, Niger

Port lotniczy Niamey

Szerokość geograficzna: 13-29N, Długość geograficzna: 002-10E, wysokość: 223 m

Aktualna obserwacja pogody

Raport powstał 53 minut temu, godzina 13:00 UTC
Wiatr 13 kt od wschód, zmienny między wschodnio-północny wschód i południowy wschód
Temperatura 32°C
Wilgotność 5%
Ciśnienie 1013 hPa
Widzialność 10 km lub więcej
Brak chmur poniżej 1500 m i brak chmur cumulonimbus

METAR: DRRN 181300Z 08013KT 060V140 CAVOK 32/M12 Q1013 NOSIG

czas: 14:53 (13:53 UTC)

Prognoza

Raport powstał 2 godziny i 53 minut temu, godzina 11:00 UTC
Prognoza ważna od 18 godzina 12 UTC do 19 godzina 18 UTC
Wiatr 10 kt od wschód
Widzialność: 8000 m
Przejściowo
od 18 godzina 18 UTC do 18 godzina 21 UTC
Widzialność: 4000 m
pył
Przejściowo
od 19 godzina 06 UTC do 19 godzina 09 UTC
Widzialność: 4000 m
pył

TAF: DRRN 181100Z 1812/1918 08010KT 8000 NSC TEMPO 1818/1821 4000 DU TEMPO 1906/1909 4000 DU

Obserwacja i prognoza pogody dla ponad 4000 lotnisk (raport METAR i TAF).

Dostępne stacje oznaczono żółtymi i czerwonymi punktami na mapie.

Najedź kursorem aby zobaczyć nazwę stacji.

Kliknij aby zobaczyć obserwacje i prognozy pogody.

Aby zmienić mapę: kliknij na zielony przycisk z czarnym krzyżykiem, aby powiększyć; na zielony przycisk z myślnikiem, aby pomniejszyć; na zielone strzałki, aby przejść do map sąsiednich.


METAR-TAF: